Dexter, Missouri
Current Conditions -  °F | °C
As of 3:53 AM on Tuesday 21 Oct 2014 (Local Time) from KCGI Reporting Station
Haze Haze  
Wind Chill: 45°   Ceiling: Unl
Heat Index: 45°   Visibility: 6mi
Dew Point: 44°   Wind: 3mph
Humidity: 97%   Direction: 240°WSW
Pressure: 30.04"   Gusts: NA
Location:  36.8°N, 89.96°W
Report Text: KCGI 210853Z AUTO 24003KT 6SM BR CLR 07/07 A3004 RMK AO2 SLP170 T00720067 51003 TSNO $
Loading
Personal Weather Stations






























Interactive Weather Map
Tropical Storm Tracking
New forecast layout! Learn more

10-Day Weather Forecast

Advertisements
Track Severe Weather on mobile